Fort Jones, California
Current Conditions -  °F | °C
As of 10:53 PM on Tuesday 21 Oct 2014 (Local Time) from KSIY Reporting Station
Broken Clouds Broken Clouds  
Wind Chill: 45°   Ceiling: 12000
Heat Index: 48°   Visibility: 10mi
Dew Point: 42°   Wind: 6mph
Humidity: 80%   Direction: 250°WSW
Pressure: 30.05"   Gusts: NA
Location:  41.61°N, 122.84°W
Report Text: KSIY 220553Z AUTO 25005KT 10SM BKN120 09/06 A3005 RMK AO2 SLP186 T00890056 10144 20089 51004
Loading
Personal Weather Stations






























Interactive Weather Map
Tropical Storm Tracking
New forecast layout! Learn more

10-Day Weather Forecast

Advertisements
Track Severe Weather on mobile